sensor_id;sensor_type;location;lat;lon;timestamp;P1;durP1;ratioP1;P2;durP2;ratioP2
25155;SDS011;21913;52.456;13.634;2023-04-06T00:02:07;4.82;;;2.83;;
25155;SDS011;21913;52.456;13.634;2023-04-06T00:07:09;4.25;;;2.60;;
25155;SDS011;21913;52.456;13.634;2023-04-06T00:12:10;4.93;;;2.70;;
25155;SDS011;21913;52.456;13.634;2023-04-06T00:17:12;4.18;;;2.50;;
25155;SDS011;21913;52.456;13.634;2023-04-06T00:22:13;3.88;;;2.30;;
25155;SDS011;21913;52.456;13.634;2023-04-06T00:27:15;4.70;;;2.50;;
25155;SDS011;21913;52.456;13.634;2023-04-06T00:32:17;4.28;;;2.45;;
25155;SDS011;21913;52.456;13.634;2023-04-06T00:37:18;4.13;;;2.50;;
25155;SDS011;21913;52.456;13.634;2023-04-06T00:42:20;4.80;;;2.60;;
25155;SDS011;21913;52.456;13.634;2023-04-06T00:47:23;3.60;;;2.40;;
25155;SDS011;21913;52.456;13.634;2023-04-06T00:52:25;3.10;;;2.20;;
25155;SDS011;21913;52.456;13.634;2023-04-06T00:57:28;4.07;;;2.25;;
25155;SDS011;21913;52.456;13.634;2023-04-06T01:02:30;3.72;;;2.40;;
25155;SDS011;21913;52.456;13.634;2023-04-06T01:07:31;3.75;;;2.25;;
25155;SDS011;21913;52.456;13.634;2023-04-06T01:12:39;4.18;;;2.28;;
25155;SDS011;21913;52.456;13.634;2023-04-06T01:17:51;3.55;;;2.30;;
25155;SDS011;21913;52.456;13.634;2023-04-06T01:22:53;4.07;;;2.30;;
25155;SDS011;21913;52.456;13.634;2023-04-06T01:27:55;3.47;;;2.17;;
25155;SDS011;21913;52.456;13.634;2023-04-06T01:33:19;4.55;;;2.63;;
25155;SDS011;21913;52.456;13.634;2023-04-06T01:38:33;5.20;;;2.30;;
25155;SDS011;21913;52.456;13.634;2023-04-06T01:43:35;4.35;;;2.50;;
25155;SDS011;21913;52.456;13.634;2023-04-06T01:48:43;3.85;;;2.33;;
25155;SDS011;21913;52.456;13.634;2023-04-06T01:54:07;3.65;;;2.33;;
25155;SDS011;21913;52.456;13.634;2023-04-06T01:59:31;3.63;;;2.15;;
25155;SDS011;21913;52.456;13.634;2023-04-06T02:04:38;5.40;;;2.58;;
25155;SDS011;21913;52.456;13.634;2023-04-06T02:09:44;6.82;;;2.35;;
25155;SDS011;21913;52.456;13.634;2023-04-06T02:14:54;5.25;;;2.70;;
25155;SDS011;21913;52.456;13.634;2023-04-06T02:19:56;3.40;;;2.13;;
25155;SDS011;21913;52.456;13.634;2023-04-06T02:24:58;3.70;;;2.35;;
25155;SDS011;21913;52.456;13.634;2023-04-06T02:30:00;4.13;;;2.38;;
25155;SDS011;21913;52.456;13.634;2023-04-06T02:35:02;3.75;;;2.30;;
25155;SDS011;21913;52.456;13.634;2023-04-06T02:40:06;4.20;;;2.40;;
25155;SDS011;21913;52.456;13.634;2023-04-06T02:45:08;4.20;;;2.10;;
25155;SDS011;21913;52.456;13.634;2023-04-06T02:50:15;3.80;;;2.40;;
25155;SDS011;21913;52.456;13.634;2023-04-06T02:55:26;4.50;;;2.15;;
25155;SDS011;21913;52.456;13.634;2023-04-06T03:00:28;3.22;;;2.08;;
25155;SDS011;21913;52.456;13.634;2023-04-06T03:05:29;3.03;;;2.25;;
25155;SDS011;21913;52.456;13.634;2023-04-06T03:10:31;5.45;;;2.22;;
25155;SDS011;21913;52.456;13.634;2023-04-06T03:15:33;3.65;;;1.90;;
25155;SDS011;21913;52.456;13.634;2023-04-06T03:20:45;4.05;;;2.30;;
25155;SDS011;21913;52.456;13.634;2023-04-06T03:25:48;3.22;;;2.10;;
25155;SDS011;21913;52.456;13.634;2023-04-06T03:30:53;3.75;;;2.30;;
25155;SDS011;21913;52.456;13.634;2023-04-06T03:36:11;3.72;;;2.15;;
25155;SDS011;21913;52.456;13.634;2023-04-06T03:41:16;3.30;;;2.20;;
25155;SDS011;21913;52.456;13.634;2023-04-06T03:46:25;3.10;;;2.10;;
25155;SDS011;21913;52.456;13.634;2023-04-06T03:51:30;3.65;;;2.05;;
25155;SDS011;21913;52.456;13.634;2023-04-06T03:56:32;4.35;;;2.08;;
25155;SDS011;21913;52.456;13.634;2023-04-06T04:01:33;3.20;;;1.90;;
25155;SDS011;21913;52.456;13.634;2023-04-06T04:06:36;3.33;;;1.90;;
25155;SDS011;21913;52.456;13.634;2023-04-06T04:11:39;3.65;;;2.00;;
25155;SDS011;21913;52.456;13.634;2023-04-06T04:16:40;3.42;;;1.98;;
25155;SDS011;21913;52.456;13.634;2023-04-06T04:21:43;3.13;;;1.90;;
25155;SDS011;21913;52.456;13.634;2023-04-06T04:26:48;4.38;;;2.05;;
25155;SDS011;21913;52.456;13.634;2023-04-06T04:31:50;3.50;;;1.83;;
25155;SDS011;21913;52.456;13.634;2023-04-06T04:36:52;3.88;;;1.85;;
25155;SDS011;21913;52.456;13.634;2023-04-06T04:42:03;3.10;;;2.03;;
25155;SDS011;21913;52.456;13.634;2023-04-06T04:47:07;3.83;;;2.20;;
25155;SDS011;21913;52.456;13.634;2023-04-06T04:52:16;4.53;;;2.20;;
25155;SDS011;21913;52.456;13.634;2023-04-06T04:57:41;2.90;;;1.83;;
25155;SDS011;21913;52.456;13.634;2023-04-06T05:02:43;3.60;;;2.25;;
25155;SDS011;21913;52.456;13.634;2023-04-06T05:07:51;4.03;;;1.92;;
25155;SDS011;21913;52.456;13.634;2023-04-06T05:13:03;2.92;;;2.00;;
25155;SDS011;21913;52.456;13.634;2023-04-06T05:18:05;3.67;;;1.98;;
25155;SDS011;21913;52.456;13.634;2023-04-06T05:23:09;4.80;;;2.17;;
25155;SDS011;21913;52.456;13.634;2023-04-06T05:28:10;2.72;;;1.80;;
25155;SDS011;21913;52.456;13.634;2023-04-06T05:33:13;3.30;;;1.98;;
25155;SDS011;21913;52.456;13.634;2023-04-06T05:38:34;3.50;;;2.10;;
25155;SDS011;21913;52.456;13.634;2023-04-06T05:43:45;3.63;;;1.80;;
25155;SDS011;21913;52.456;13.634;2023-04-06T05:48:47;2.88;;;1.73;;
25155;SDS011;21913;52.456;13.634;2023-04-06T05:53:50;3.05;;;1.77;;
25155;SDS011;21913;52.456;13.634;2023-04-06T05:58:51;2.97;;;1.80;;
25155;SDS011;21913;52.456;13.634;2023-04-06T06:04:00;2.85;;;2.00;;
25155;SDS011;21913;52.456;13.634;2023-04-06T06:09:05;2.90;;;1.90;;
25155;SDS011;21913;52.456;13.634;2023-04-06T06:14:11;3.42;;;2.00;;
25155;SDS011;21913;52.456;13.634;2023-04-06T06:19:14;2.90;;;1.70;;
25155;SDS011;21913;52.456;13.634;2023-04-06T06:24:18;2.72;;;1.75;;
25155;SDS011;21913;52.456;13.634;2023-04-06T06:29:19;2.58;;;1.70;;
25155;SDS011;21913;52.456;13.634;2023-04-06T06:34:21;2.97;;;1.85;;
25155;SDS011;21913;52.456;13.634;2023-04-06T06:39:24;2.40;;;1.80;;
25155;SDS011;21913;52.456;13.634;2023-04-06T06:44:25;3.13;;;1.55;;
25155;SDS011;21913;52.456;13.634;2023-04-06T06:49:27;2.58;;;1.55;;
25155;SDS011;21913;52.456;13.634;2023-04-06T06:54:31;2.63;;;1.90;;
25155;SDS011;21913;52.456;13.634;2023-04-06T06:59:32;3.33;;;1.77;;
25155;SDS011;21913;52.456;13.634;2023-04-06T07:04:34;3.33;;;1.77;;
25155;SDS011;21913;52.456;13.634;2023-04-06T07:09:36;3.40;;;1.90;;
25155;SDS011;21913;52.456;13.634;2023-04-06T07:14:38;4.53;;;2.00;;
25155;SDS011;21913;52.456;13.634;2023-04-06T07:19:39;3.08;;;1.95;;
25155;SDS011;21913;52.456;13.634;2023-04-06T07:24:41;3.20;;;1.83;;
25155;SDS011;21913;52.456;13.634;2023-04-06T07:29:43;2.70;;;1.67;;
25155;SDS011;21913;52.456;13.634;2023-04-06T07:34:44;3.38;;;1.83;;
25155;SDS011;21913;52.456;13.634;2023-04-06T07:39:47;3.28;;;1.80;;
25155;SDS011;21913;52.456;13.634;2023-04-06T07:44:49;3.10;;;1.67;;
25155;SDS011;21913;52.456;13.634;2023-04-06T07:49:50;5.32;;;3.22;;
25155;SDS011;21913;52.456;13.634;2023-04-06T07:54:52;5.57;;;3.47;;
25155;SDS011;21913;52.456;13.634;2023-04-06T07:59:54;9.48;;;4.40;;
25155;SDS011;21913;52.456;13.634;2023-04-06T08:04:55;7.70;;;4.00;;
25155;SDS011;21913;52.456;13.634;2023-04-06T08:09:57;5.13;;;3.47;;
25155;SDS011;21913;52.456;13.634;2023-04-06T08:14:59;6.47;;;3.53;;
25155;SDS011;21913;52.456;13.634;2023-04-06T08:20:00;6.47;;;3.55;;
25155;SDS011;21913;52.456;13.634;2023-04-06T08:25:02;5.80;;;3.58;;
25155;SDS011;21913;52.456;13.634;2023-04-06T08:30:04;6.13;;;3.13;;
25155;SDS011;21913;52.456;13.634;2023-04-06T08:35:06;5.53;;;3.17;;
25155;SDS011;21913;52.456;13.634;2023-04-06T08:40:08;5.55;;;3.28;;
25155;SDS011;21913;52.456;13.634;2023-04-06T08:45:10;5.03;;;3.20;;
25155;SDS011;21913;52.456;13.634;2023-04-06T08:50:11;5.55;;;2.97;;
25155;SDS011;21913;52.456;13.634;2023-04-06T08:55:13;4.90;;;3.05;;
25155;SDS011;21913;52.456;13.634;2023-04-06T09:00:16;4.43;;;2.67;;
25155;SDS011;21913;52.456;13.634;2023-04-06T09:05:18;5.70;;;3.13;;
25155;SDS011;21913;52.456;13.634;2023-04-06T09:10:20;5.43;;;2.78;;
25155;SDS011;21913;52.456;13.634;2023-04-06T09:15:21;4.50;;;2.42;;
25155;SDS011;21913;52.456;13.634;2023-04-06T09:20:25;4.25;;;2.35;;
25155;SDS011;21913;52.456;13.634;2023-04-06T09:25:27;4.18;;;2.53;;
25155;SDS011;21913;52.456;13.634;2023-04-06T09:30:28;4.60;;;2.72;;
25155;SDS011;21913;52.456;13.634;2023-04-06T09:35:30;3.83;;;2.30;;
25155;SDS011;21913;52.456;13.634;2023-04-06T09:40:32;4.22;;;2.60;;
25155;SDS011;21913;52.456;13.634;2023-04-06T09:45:33;4.97;;;2.42;;
25155;SDS011;21913;52.456;13.634;2023-04-06T09:50:35;5.85;;;2.65;;
25155;SDS011;21913;52.456;13.634;2023-04-06T09:55:40;4.03;;;2.13;;
25155;SDS011;21913;52.456;13.634;2023-04-06T10:00:47;3.75;;;2.30;;
25155;SDS011;21913;52.456;13.634;2023-04-06T10:05:57;4.35;;;2.63;;
25155;SDS011;21913;52.456;13.634;2023-04-06T10:11:04;4.15;;;2.40;;
25155;SDS011;21913;52.456;13.634;2023-04-06T10:16:06;3.75;;;2.45;;
25155;SDS011;21913;52.456;13.634;2023-04-06T10:21:09;3.95;;;2.40;;
25155;SDS011;21913;52.456;13.634;2023-04-06T10:26:14;2.50;;;1.75;;
25155;SDS011;21913;52.456;13.634;2023-04-06T10:31:26;3.03;;;2.00;;
25155;SDS011;21913;52.456;13.634;2023-04-06T10:36:32;3.08;;;1.85;;
25155;SDS011;21913;52.456;13.634;2023-04-06T10:41:44;3.72;;;2.10;;
25155;SDS011;21913;52.456;13.634;2023-04-06T10:46:53;3.70;;;1.90;;
25155;SDS011;21913;52.456;13.634;2023-04-06T10:51:56;13.18;;;5.35;;
25155;SDS011;21913;52.456;13.634;2023-04-06T10:56:58;10.80;;;4.60;;
25155;SDS011;21913;52.456;13.634;2023-04-06T11:02:00;22.65;;;5.07;;
25155;SDS011;21913;52.456;13.634;2023-04-06T11:07:01;15.60;;;4.65;;
25155;SDS011;21913;52.456;13.634;2023-04-06T11:12:03;10.35;;;4.38;;
25155;SDS011;21913;52.456;13.634;2023-04-06T11:17:08;9.63;;;4.40;;
25155;SDS011;21913;52.456;13.634;2023-04-06T11:22:10;9.77;;;4.30;;
25155;SDS011;21913;52.456;13.634;2023-04-06T11:27:11;6.70;;;4.13;;
25155;SDS011;21913;52.456;13.634;2023-04-06T11:32:19;7.70;;;3.75;;
25155;SDS011;21913;52.456;13.634;2023-04-06T11:37:25;7.30;;;3.63;;
25155;SDS011;21913;52.456;13.634;2023-04-06T11:42:28;8.85;;;4.65;;
25155;SDS011;21913;52.456;13.634;2023-04-06T11:47:34;8.65;;;4.43;;
25155;SDS011;21913;52.456;13.634;2023-04-06T11:52:41;8.50;;;4.20;;
25155;SDS011;21913;52.456;13.634;2023-04-06T11:57:43;12.07;;;4.80;;
25155;SDS011;21913;52.456;13.634;2023-04-06T12:02:46;9.30;;;4.78;;
25155;SDS011;21913;52.456;13.634;2023-04-06T12:07:48;6.72;;;4.10;;
25155;SDS011;21913;52.456;13.634;2023-04-06T12:12:50;7.50;;;4.30;;
25155;SDS011;21913;52.456;13.634;2023-04-06T12:17:51;6.82;;;3.78;;
25155;SDS011;21913;52.456;13.634;2023-04-06T12:22:53;6.50;;;3.58;;
25155;SDS011;21913;52.456;13.634;2023-04-06T12:27:55;6.75;;;3.75;;
25155;SDS011;21913;52.456;13.634;2023-04-06T12:32:56;4.68;;;3.10;;
25155;SDS011;21913;52.456;13.634;2023-04-06T12:37:58;7.05;;;3.50;;
25155;SDS011;21913;52.456;13.634;2023-04-06T12:42:59;8.55;;;3.33;;
25155;SDS011;21913;52.456;13.634;2023-04-06T12:48:01;6.80;;;3.17;;
25155;SDS011;21913;52.456;13.634;2023-04-06T12:53:02;6.70;;;3.17;;
25155;SDS011;21913;52.456;13.634;2023-04-06T12:58:04;5.57;;;2.97;;
25155;SDS011;21913;52.456;13.634;2023-04-06T13:03:05;5.40;;;2.50;;
25155;SDS011;21913;52.456;13.634;2023-04-06T13:08:07;6.30;;;3.00;;
25155;SDS011;21913;52.456;13.634;2023-04-06T13:13:08;3.95;;;2.65;;
25155;SDS011;21913;52.456;13.634;2023-04-06T13:18:10;4.78;;;2.67;;
25155;SDS011;21913;52.456;13.634;2023-04-06T13:23:12;7.20;;;2.90;;
25155;SDS011;21913;52.456;13.634;2023-04-06T13:28:13;5.28;;;2.80;;
25155;SDS011;21913;52.456;13.634;2023-04-06T13:33:15;4.68;;;2.40;;
25155;SDS011;21913;52.456;13.634;2023-04-06T13:38:17;9.82;;;6.00;;
25155;SDS011;21913;52.456;13.634;2023-04-06T13:43:18;6.60;;;3.30;;
25155;SDS011;21913;52.456;13.634;2023-04-06T13:48:20;6.75;;;3.92;;
25155;SDS011;21913;52.456;13.634;2023-04-06T13:53:22;6.93;;;3.80;;
25155;SDS011;21913;52.456;13.634;2023-04-06T13:58:24;6.47;;;3.75;;
25155;SDS011;21913;52.456;13.634;2023-04-06T14:03:25;6.22;;;3.67;;
25155;SDS011;21913;52.456;13.634;2023-04-06T14:08:27;5.38;;;3.28;;
25155;SDS011;21913;52.456;13.634;2023-04-06T14:13:28;6.80;;;3.22;;
25155;SDS011;21913;52.456;13.634;2023-04-06T14:18:30;11.95;;;5.28;;
25155;SDS011;21913;52.456;13.634;2023-04-06T14:23:31;10.77;;;6.55;;
25155;SDS011;21913;52.456;13.634;2023-04-06T14:28:33;11.18;;;6.40;;
25155;SDS011;21913;52.456;13.634;2023-04-06T14:33:35;10.10;;;6.18;;
25155;SDS011;21913;52.456;13.634;2023-04-06T14:38:37;8.98;;;5.72;;
25155;SDS011;21913;52.456;13.634;2023-04-06T14:43:38;11.43;;;5.97;;
25155;SDS011;21913;52.456;13.634;2023-04-06T14:48:40;10.68;;;5.90;;
25155;SDS011;21913;52.456;13.634;2023-04-06T14:53:41;9.73;;;6.38;;
25155;SDS011;21913;52.456;13.634;2023-04-06T14:58:43;11.55;;;6.15;;
25155;SDS011;21913;52.456;13.634;2023-04-06T15:03:45;10.43;;;5.63;;
25155;SDS011;21913;52.456;13.634;2023-04-06T15:08:47;8.35;;;5.30;;
25155;SDS011;21913;52.456;13.634;2023-04-06T15:13:49;8.20;;;5.20;;
25155;SDS011;21913;52.456;13.634;2023-04-06T15:18:54;8.60;;;5.05;;
25155;SDS011;21913;52.456;13.634;2023-04-06T15:23:56;8.25;;;4.85;;
25155;SDS011;21913;52.456;13.634;2023-04-06T15:28:57;7.95;;;4.78;;
25155;SDS011;21913;52.456;13.634;2023-04-06T15:34:01;9.82;;;5.03;;
25155;SDS011;21913;52.456;13.634;2023-04-06T15:39:02;6.65;;;4.30;;
25155;SDS011;21913;52.456;13.634;2023-04-06T15:44:04;8.15;;;4.13;;
25155;SDS011;21913;52.456;13.634;2023-04-06T15:49:05;8.15;;;4.13;;
25155;SDS011;21913;52.456;13.634;2023-04-06T15:54:07;5.60;;;4.00;;
25155;SDS011;21913;52.456;13.634;2023-04-06T15:59:08;5.75;;;3.60;;
25155;SDS011;21913;52.456;13.634;2023-04-06T16:04:10;5.60;;;3.45;;
25155;SDS011;21913;52.456;13.634;2023-04-06T16:09:11;6.57;;;3.65;;
25155;SDS011;21913;52.456;13.634;2023-04-06T16:14:13;6.50;;;3.53;;
25155;SDS011;21913;52.456;13.634;2023-04-06T16:19:14;6.07;;;3.42;;
25155;SDS011;21913;52.456;13.634;2023-04-06T16:24:16;6.00;;;3.50;;
25155;SDS011;21913;52.456;13.634;2023-04-06T16:29:17;5.50;;;2.90;;
25155;SDS011;21913;52.456;13.634;2023-04-06T16:34:19;5.57;;;3.08;;
25155;SDS011;21913;52.456;13.634;2023-04-06T16:39:20;6.43;;;3.00;;
25155;SDS011;21913;52.456;13.634;2023-04-06T16:44:22;5.30;;;3.00;;
25155;SDS011;21913;52.456;13.634;2023-04-06T16:49:23;5.15;;;2.85;;
25155;SDS011;21913;52.456;13.634;2023-04-06T16:54:25;5.57;;;2.67;;
25155;SDS011;21913;52.456;13.634;2023-04-06T16:59:27;3.78;;;2.40;;
25155;SDS011;21913;52.456;13.634;2023-04-06T17:04:29;6.65;;;2.60;;
25155;SDS011;21913;52.456;13.634;2023-04-06T17:09:31;4.88;;;2.33;;
25155;SDS011;21913;52.456;13.634;2023-04-06T17:14:38;4.07;;;2.40;;
25155;SDS011;21913;52.456;13.634;2023-04-06T17:19:39;4.65;;;2.40;;
25155;SDS011;21913;52.456;13.634;2023-04-06T17:24:41;4.03;;;2.38;;
25155;SDS011;21913;52.456;13.634;2023-04-06T17:29:42;4.30;;;2.30;;
25155;SDS011;21913;52.456;13.634;2023-04-06T17:34:44;3.80;;;2.30;;
25155;SDS011;21913;52.456;13.634;2023-04-06T17:39:45;4.40;;;2.33;;
25155;SDS011;21913;52.456;13.634;2023-04-06T17:44:47;3.22;;;2.08;;
25155;SDS011;21913;52.456;13.634;2023-04-06T17:49:49;4.03;;;2.28;;
25155;SDS011;21913;52.456;13.634;2023-04-06T17:54:51;4.63;;;2.20;;
25155;SDS011;21913;52.456;13.634;2023-04-06T17:59:53;5.00;;;2.03;;
25155;SDS011;21913;52.456;13.634;2023-04-06T18:04:54;4.22;;;1.98;;
25155;SDS011;21913;52.456;13.634;2023-04-06T18:09:55;3.28;;;1.67;;
25155;SDS011;21913;52.456;13.634;2023-04-06T18:14:57;4.38;;;2.47;;
25155;SDS011;21913;52.456;13.634;2023-04-06T18:19:59;3.45;;;1.77;;
25155;SDS011;21913;52.456;13.634;2023-04-06T18:25:00;4.22;;;2.05;;
25155;SDS011;21913;52.456;13.634;2023-04-06T18:30:02;3.72;;;2.10;;
25155;SDS011;21913;52.456;13.634;2023-04-06T18:35:04;3.22;;;1.95;;
25155;SDS011;21913;52.456;13.634;2023-04-06T18:40:06;3.67;;;2.13;;
25155;SDS011;21913;52.456;13.634;2023-04-06T18:45:08;6.93;;;2.42;;
25155;SDS011;21913;52.456;13.634;2023-04-06T18:50:10;4.78;;;2.58;;
25155;SDS011;21913;52.456;13.634;2023-04-06T18:55:11;4.22;;;2.50;;
25155;SDS011;21913;52.456;13.634;2023-04-06T19:00:13;3.58;;;2.47;;
25155;SDS011;21913;52.456;13.634;2023-04-06T19:05:16;4.28;;;2.25;;
25155;SDS011;21913;52.456;13.634;2023-04-06T19:10:17;4.50;;;2.60;;
25155;SDS011;21913;52.456;13.634;2023-04-06T19:15:23;4.63;;;2.50;;
25155;SDS011;21913;52.456;13.634;2023-04-06T19:20:24;3.20;;;2.08;;
25155;SDS011;21913;52.456;13.634;2023-04-06T19:25:26;3.35;;;2.10;;
25155;SDS011;21913;52.456;13.634;2023-04-06T19:30:27;4.18;;;2.00;;
25155;SDS011;21913;52.456;13.634;2023-04-06T19:35:29;3.42;;;2.15;;
25155;SDS011;21913;52.456;13.634;2023-04-06T19:40:30;3.78;;;2.03;;
25155;SDS011;21913;52.456;13.634;2023-04-06T19:45:32;3.05;;;2.00;;
25155;SDS011;21913;52.456;13.634;2023-04-06T19:50:33;3.28;;;2.00;;
25155;SDS011;21913;52.456;13.634;2023-04-06T19:55:35;3.05;;;1.80;;
25155;SDS011;21913;52.456;13.634;2023-04-06T20:00:36;2.90;;;1.88;;
25155;SDS011;21913;52.456;13.634;2023-04-06T20:05:38;2.67;;;1.65;;
25155;SDS011;21913;52.456;13.634;2023-04-06T20:10:39;4.57;;;2.20;;
25155;SDS011;21913;52.456;13.634;2023-04-06T20:15:41;3.42;;;1.90;;
25155;SDS011;21913;52.456;13.634;2023-04-06T20:20:42;3.38;;;1.92;;
25155;SDS011;21913;52.456;13.634;2023-04-06T20:25:44;2.70;;;1.60;;
25155;SDS011;21913;52.456;13.634;2023-04-06T20:30:49;2.95;;;2.00;;
25155;SDS011;21913;52.456;13.634;2023-04-06T20:35:55;2.97;;;1.77;;
25155;SDS011;21913;52.456;13.634;2023-04-06T20:41:00;2.50;;;1.73;;
25155;SDS011;21913;52.456;13.634;2023-04-06T20:46:01;2.83;;;1.70;;
25155;SDS011;21913;52.456;13.634;2023-04-06T20:51:03;4.22;;;1.80;;
25155;SDS011;21913;52.456;13.634;2023-04-06T20:56:05;2.80;;;1.70;;
25155;SDS011;21913;52.456;13.634;2023-04-06T21:01:15;3.15;;;1.90;;
25155;SDS011;21913;52.456;13.634;2023-04-06T21:06:17;2.80;;;1.80;;
25155;SDS011;21913;52.456;13.634;2023-04-06T21:11:19;2.83;;;1.83;;
25155;SDS011;21913;52.456;13.634;2023-04-06T21:16:20;6.13;;;1.80;;
25155;SDS011;21913;52.456;13.634;2023-04-06T21:21:22;2.75;;;1.80;;
25155;SDS011;21913;52.456;13.634;2023-04-06T21:26:23;2.63;;;1.80;;
25155;SDS011;21913;52.456;13.634;2023-04-06T21:31:25;3.03;;;1.70;;
25155;SDS011;21913;52.456;13.634;2023-04-06T21:36:26;2.78;;;1.98;;
25155;SDS011;21913;52.456;13.634;2023-04-06T21:41:28;3.25;;;2.00;;
25155;SDS011;21913;52.456;13.634;2023-04-06T21:46:30;2.63;;;1.83;;
25155;SDS011;21913;52.456;13.634;2023-04-06T21:51:32;3.97;;;1.92;;
25155;SDS011;21913;52.456;13.634;2023-04-06T21:56:33;3.70;;;2.30;;
25155;SDS011;21913;52.456;13.634;2023-04-06T22:01:35;3.70;;;2.03;;
25155;SDS011;21913;52.456;13.634;2023-04-06T22:06:36;3.03;;;2.13;;
25155;SDS011;21913;52.456;13.634;2023-04-06T22:11:38;2.95;;;1.90;;
25155;SDS011;21913;52.456;13.634;2023-04-06T22:16:39;4.13;;;2.05;;
25155;SDS011;21913;52.456;13.634;2023-04-06T22:21:42;3.03;;;2.03;;
25155;SDS011;21913;52.456;13.634;2023-04-06T22:26:44;4.13;;;2.13;;
25155;SDS011;21913;52.456;13.634;2023-04-06T22:31:46;3.20;;;1.80;;
25155;SDS011;21913;52.456;13.634;2023-04-06T22:36:47;4.13;;;2.15;;
25155;SDS011;21913;52.456;13.634;2023-04-06T22:41:49;2.28;;;1.58;;
25155;SDS011;21913;52.456;13.634;2023-04-06T22:46:50;3.35;;;2.00;;
25155;SDS011;21913;52.456;13.634;2023-04-06T22:51:52;3.00;;;2.03;;
25155;SDS011;21913;52.456;13.634;2023-04-06T22:56:53;2.60;;;1.60;;
25155;SDS011;21913;52.456;13.634;2023-04-06T23:01:54;3.25;;;2.20;;
25155;SDS011;21913;52.456;13.634;2023-04-06T23:06:56;3.40;;;2.10;;
25155;SDS011;21913;52.456;13.634;2023-04-06T23:11:57;3.28;;;1.80;;
25155;SDS011;21913;52.456;13.634;2023-04-06T23:16:59;3.08;;;1.90;;
25155;SDS011;21913;52.456;13.634;2023-04-06T23:22:01;2.88;;;1.70;;
25155;SDS011;21913;52.456;13.634;2023-04-06T23:27:02;2.53;;;1.60;;
25155;SDS011;21913;52.456;13.634;2023-04-06T23:32:04;2.78;;;1.85;;
25155;SDS011;21913;52.456;13.634;2023-04-06T23:37:05;4.03;;;1.92;;
25155;SDS011;21913;52.456;13.634;2023-04-06T23:42:07;2.70;;;2.00;;
25155;SDS011;21913;52.456;13.634;2023-04-06T23:47:08;3.28;;;1.80;;
25155;SDS011;21913;52.456;13.634;2023-04-06T23:52:10;2.67;;;1.70;;
25155;SDS011;21913;52.456;13.634;2023-04-06T23:57:11;2.92;;;1.70;;
